sensor_id;sensor_type;location;lat;lon;timestamp;pressure;altitude;pressure_sealevel;temperature;humidity
64189;BME280;50493;50.970;10.082;2022-07-26T00:01:03;98910.66;;;23.71;44.58
64189;BME280;50493;50.970;10.082;2022-07-26T00:03:29;98912.00;;;23.66;44.87
64189;BME280;50493;50.970;10.082;2022-07-26T00:05:55;98907.03;;;23.61;44.70
64189;BME280;50493;50.970;10.082;2022-07-26T00:08:20;98917.63;;;23.51;45.03
64189;BME280;50493;50.970;10.082;2022-07-26T00:10:48;98915.09;;;23.50;45.04
64189;BME280;50493;50.970;10.082;2022-07-26T00:13:14;98908.59;;;23.43;44.92
64189;BME280;50493;50.970;10.082;2022-07-26T00:15:42;98916.47;;;23.33;45.10
64189;BME280;50493;50.970;10.082;2022-07-26T00:18:09;98918.56;;;23.29;45.17
64189;BME280;50493;50.970;10.082;2022-07-26T00:20:35;98911.47;;;23.18;45.21
64189;BME280;50493;50.970;10.082;2022-07-26T00:23:01;98922.88;;;23.09;45.25
64189;BME280;50493;50.970;10.082;2022-07-26T00:25:26;98926.00;;;23.03;45.65
64189;BME280;50493;50.970;10.082;2022-07-26T00:27:52;98932.09;;;23.05;44.98
64189;BME280;50493;50.970;10.082;2022-07-26T00:30:18;98920.69;;;22.92;45.32
64189;BME280;50493;50.970;10.082;2022-07-26T00:32:43;98933.53;;;22.86;45.77
64189;BME280;50493;50.970;10.082;2022-07-26T00:35:10;98933.78;;;22.83;45.78
64189;BME280;50493;50.970;10.082;2022-07-26T00:37:36;98935.34;;;22.75;45.91
64189;BME280;50493;50.970;10.082;2022-07-26T00:40:02;98938.16;;;22.73;45.72
64189;BME280;50493;50.970;10.082;2022-07-26T00:42:28;98932.34;;;22.79;45.67
64189;BME280;50493;50.970;10.082;2022-07-26T00:44:53;98939.38;;;22.58;45.96
64189;BME280;50493;50.970;10.082;2022-07-26T00:47:18;98946.97;;;22.62;45.49
64189;BME280;50493;50.970;10.082;2022-07-26T00:49:44;98942.50;;;22.51;45.67
64189;BME280;50493;50.970;10.082;2022-07-26T00:52:11;98958.00;;;22.46;46.09
64189;BME280;50493;50.970;10.082;2022-07-26T00:54:37;98959.31;;;22.41;46.14
64189;BME280;50493;50.970;10.082;2022-07-26T00:57:04;98958.72;;;22.37;46.17
64189;BME280;50493;50.970;10.082;2022-07-26T00:59:29;98951.88;;;22.33;46.19
64189;BME280;50493;50.970;10.082;2022-07-26T01:01:55;98950.22;;;22.32;45.99
64189;BME280;50493;50.970;10.082;2022-07-26T01:04:20;98954.31;;;22.25;46.09
64189;BME280;50493;50.970;10.082;2022-07-26T01:06:47;98952.63;;;22.24;46.06
64189;BME280;50493;50.970;10.082;2022-07-26T01:09:14;98959.25;;;22.18;46.09
64189;BME280;50493;50.970;10.082;2022-07-26T01:11:40;98958.88;;;22.11;46.42
64189;BME280;50493;50.970;10.082;2022-07-26T01:14:06;98962.66;;;22.09;46.12
64189;BME280;50493;50.970;10.082;2022-07-26T01:16:31;98957.41;;;22.07;46.32
64189;BME280;50493;50.970;10.082;2022-07-26T01:18:57;98963.81;;;22.04;46.09
64189;BME280;50493;50.970;10.082;2022-07-26T01:21:27;98959.09;;;21.97;45.89
64189;BME280;50493;50.970;10.082;2022-07-26T01:23:53;98949.88;;;21.89;46.17
64189;BME280;50493;50.970;10.082;2022-07-26T01:26:18;98960.50;;;21.89;46.24
64189;BME280;50493;50.970;10.082;2022-07-26T01:28:44;98960.03;;;21.84;46.37
64189;BME280;50493;50.970;10.082;2022-07-26T01:31:10;98961.22;;;21.80;46.02
64189;BME280;50493;50.970;10.082;2022-07-26T01:33:36;98967.84;;;21.75;46.12
64189;BME280;50493;50.970;10.082;2022-07-26T01:36:01;98960.44;;;21.67;46.31
64189;BME280;50493;50.970;10.082;2022-07-26T01:38:28;98973.25;;;21.62;46.39
64189;BME280;50493;50.970;10.082;2022-07-26T01:40:53;98959.41;;;21.57;46.43
64189;BME280;50493;50.970;10.082;2022-07-26T01:43:19;98963.25;;;21.52;46.63
64189;BME280;50493;50.970;10.082;2022-07-26T01:45:44;98950.91;;;21.51;46.43
64189;BME280;50493;50.970;10.082;2022-07-26T01:48:10;98956.22;;;21.51;46.29
64189;BME280;50493;50.970;10.082;2022-07-26T01:50:36;98967.94;;;21.49;46.39
64189;BME280;50493;50.970;10.082;2022-07-26T01:53:01;98969.75;;;21.48;46.30
64189;BME280;50493;50.970;10.082;2022-07-26T01:55:28;98959.63;;;21.53;46.06
64189;BME280;50493;50.970;10.082;2022-07-26T01:57:53;98962.41;;;21.52;45.91
64189;BME280;50493;50.970;10.082;2022-07-26T02:00:19;98966.25;;;21.48;46.28
64189;BME280;50493;50.970;10.082;2022-07-26T02:02:44;98958.75;;;21.53;45.74
64189;BME280;50493;50.970;10.082;2022-07-26T02:05:10;98965.13;;;21.39;46.11
64189;BME280;50493;50.970;10.082;2022-07-26T02:07:37;98963.28;;;21.39;46.01
64189;BME280;50493;50.970;10.082;2022-07-26T02:10:05;98971.38;;;21.38;46.01
64189;BME280;50493;50.970;10.082;2022-07-26T02:12:32;98969.47;;;21.40;45.92
64189;BME280;50493;50.970;10.082;2022-07-26T02:14:58;98972.84;;;21.42;45.84
64189;BME280;50493;50.970;10.082;2022-07-26T02:17:29;98970.53;;;21.37;45.84
64189;BME280;50493;50.970;10.082;2022-07-26T02:19:55;98970.91;;;21.33;45.89
64189;BME280;50493;50.970;10.082;2022-07-26T02:22:20;98974.00;;;21.27;46.20
64189;BME280;50493;50.970;10.082;2022-07-26T02:24:46;98971.34;;;21.27;46.00
64189;BME280;50493;50.970;10.082;2022-07-26T02:27:11;98965.19;;;21.26;46.18
64189;BME280;50493;50.970;10.082;2022-07-26T02:29:38;98973.16;;;21.26;45.89
64189;BME280;50493;50.970;10.082;2022-07-26T02:32:04;98974.00;;;21.27;46.16
64189;BME280;50493;50.970;10.082;2022-07-26T02:34:30;98965.50;;;21.21;45.94
64189;BME280;50493;50.970;10.082;2022-07-26T02:36:55;98965.97;;;21.15;46.00
64189;BME280;50493;50.970;10.082;2022-07-26T02:39:21;98961.59;;;21.14;45.91
64189;BME280;50493;50.970;10.082;2022-07-26T02:41:52;98965.72;;;21.18;45.83
64189;BME280;50493;50.970;10.082;2022-07-26T02:44:17;98966.16;;;21.12;46.15
64189;BME280;50493;50.970;10.082;2022-07-26T02:46:44;98966.28;;;21.11;46.02
64189;BME280;50493;50.970;10.082;2022-07-26T02:49:09;98966.38;;;21.09;45.89
64189;BME280;50493;50.970;10.082;2022-07-26T02:51:34;98969.81;;;21.11;45.73
64189;BME280;50493;50.970;10.082;2022-07-26T02:54:00;98969.16;;;21.08;45.89
64189;BME280;50493;50.970;10.082;2022-07-26T02:56:25;98961.97;;;20.97;46.14
64189;BME280;50493;50.970;10.082;2022-07-26T02:58:51;98962.91;;;20.96;46.03
64189;BME280;50493;50.970;10.082;2022-07-26T03:01:16;98960.03;;;20.99;45.90
64189;BME280;50493;50.970;10.082;2022-07-26T03:03:43;98955.19;;;20.93;46.06
64189;BME280;50493;50.970;10.082;2022-07-26T03:06:08;98958.78;;;20.92;46.04
64189;BME280;50493;50.970;10.082;2022-07-26T03:08:33;98953.47;;;20.92;45.85
64189;BME280;50493;50.970;10.082;2022-07-26T03:10:59;98960.50;;;20.93;45.87
64189;BME280;50493;50.970;10.082;2022-07-26T03:13:24;98958.09;;;20.88;46.03
64189;BME280;50493;50.970;10.082;2022-07-26T03:15:50;98954.09;;;20.82;46.25
64189;BME280;50493;50.970;10.082;2022-07-26T03:18:15;98955.72;;;20.72;46.06
64189;BME280;50493;50.970;10.082;2022-07-26T03:20:42;98945.28;;;20.69;46.14
64189;BME280;50493;50.970;10.082;2022-07-26T03:23:07;98952.00;;;20.62;46.54
64189;BME280;50493;50.970;10.082;2022-07-26T03:25:33;98960.91;;;20.61;46.50
64189;BME280;50493;50.970;10.082;2022-07-26T03:27:58;98951.94;;;20.50;46.55
64189;BME280;50493;50.970;10.082;2022-07-26T03:30:24;98957.66;;;20.44;46.92
64189;BME280;50493;50.970;10.082;2022-07-26T03:32:50;98965.84;;;20.41;46.65
64189;BME280;50493;50.970;10.082;2022-07-26T03:35:15;98966.47;;;20.32;47.02
64189;BME280;50493;50.970;10.082;2022-07-26T03:37:42;98962.53;;;20.25;47.05
64189;BME280;50493;50.970;10.082;2022-07-26T03:40:09;98958.41;;;20.20;47.13
64189;BME280;50493;50.970;10.082;2022-07-26T03:42:36;98964.13;;;20.14;47.37
64189;BME280;50493;50.970;10.082;2022-07-26T03:45:02;98959.19;;;20.08;47.40
64189;BME280;50493;50.970;10.082;2022-07-26T03:47:29;98961.84;;;20.08;47.32
64189;BME280;50493;50.970;10.082;2022-07-26T03:49:54;98967.25;;;20.07;47.25
64189;BME280;50493;50.970;10.082;2022-07-26T03:52:19;98965.47;;;20.07;47.00
64189;BME280;50493;50.970;10.082;2022-07-26T03:54:46;98968.75;;;19.98;47.50
64189;BME280;50493;50.970;10.082;2022-07-26T03:57:12;98972.34;;;19.97;47.40
64189;BME280;50493;50.970;10.082;2022-07-26T03:59:37;98966.28;;;19.95;47.49
64189;BME280;50493;50.970;10.082;2022-07-26T04:02:02;98971.91;;;19.90;47.33
64189;BME280;50493;50.970;10.082;2022-07-26T04:04:28;98969.34;;;19.88;47.12
64189;BME280;50493;50.970;10.082;2022-07-26T04:06:53;98972.94;;;19.87;47.14
64189;BME280;50493;50.970;10.082;2022-07-26T04:09:20;98971.47;;;19.83;47.25
64189;BME280;50493;50.970;10.082;2022-07-26T04:11:47;98977.91;;;19.79;47.30
64189;BME280;50493;50.970;10.082;2022-07-26T04:14:13;98977.25;;;19.76;47.19
64189;BME280;50493;50.970;10.082;2022-07-26T04:16:38;98977.38;;;19.74;47.29
64189;BME280;50493;50.970;10.082;2022-07-26T04:19:04;98974.44;;;19.79;47.10
64189;BME280;50493;50.970;10.082;2022-07-26T04:21:30;98983.09;;;19.68;47.33
64189;BME280;50493;50.970;10.082;2022-07-26T04:23:55;98980.22;;;19.71;46.95
64189;BME280;50493;50.970;10.082;2022-07-26T04:26:21;98983.09;;;19.68;47.26
64189;BME280;50493;50.970;10.082;2022-07-26T04:28:48;98984.16;;;19.78;47.04
64189;BME280;50493;50.970;10.082;2022-07-26T04:31:13;98984.84;;;19.95;46.29
64189;BME280;50493;50.970;10.082;2022-07-26T04:33:38;98987.88;;;20.16;45.62
64189;BME280;50493;50.970;10.082;2022-07-26T04:36:04;98989.06;;;20.76;43.83
64189;BME280;50493;50.970;10.082;2022-07-26T04:38:30;98991.97;;;21.47;42.16
64189;BME280;50493;50.970;10.082;2022-07-26T04:41:10;98988.38;;;22.44;39.93
64189;BME280;50493;50.970;10.082;2022-07-26T04:43:36;98999.53;;;22.13;40.48
64189;BME280;50493;50.970;10.082;2022-07-26T04:46:03;98994.94;;;21.80;41.64
64189;BME280;50493;50.970;10.082;2022-07-26T04:48:28;99004.56;;;20.82;43.31
64189;BME280;50493;50.970;10.082;2022-07-26T04:50:53;99010.63;;;20.84;43.24
64189;BME280;50493;50.970;10.082;2022-07-26T04:53:19;99012.13;;;20.88;43.10
64189;BME280;50493;50.970;10.082;2022-07-26T04:55:44;99008.84;;;20.98;42.87
64189;BME280;50493;50.970;10.082;2022-07-26T04:58:11;99004.34;;;21.11;42.29
64189;BME280;50493;50.970;10.082;2022-07-26T05:00:36;99010.88;;;22.04;40.15
64189;BME280;50493;50.970;10.082;2022-07-26T05:03:04;99005.31;;;21.71;40.64
64189;BME280;50493;50.970;10.082;2022-07-26T05:05:31;99016.25;;;21.43;41.13
64189;BME280;50493;50.970;10.082;2022-07-26T05:07:59;99012.97;;;21.39;41.43
64189;BME280;50493;50.970;10.082;2022-07-26T05:10:28;99005.47;;;21.33;41.41
64189;BME280;50493;50.970;10.082;2022-07-26T05:12:54;99017.59;;;21.24;41.64
64189;BME280;50493;50.970;10.082;2022-07-26T05:15:19;99016.31;;;21.54;43.52
64189;BME280;50493;50.970;10.082;2022-07-26T05:17:45;99012.50;;;22.87;40.23
64189;BME280;50493;50.970;10.082;2022-07-26T05:20:14;99012.50;;;23.21;40.56
64189;BME280;50493;50.970;10.082;2022-07-26T05:22:40;99025.22;;;23.29;39.41
64189;BME280;50493;50.970;10.082;2022-07-26T05:25:06;99022.59;;;25.00;39.74
64189;BME280;50493;50.970;10.082;2022-07-26T05:27:35;99014.50;;;25.11;34.83
64189;BME280;50493;50.970;10.082;2022-07-26T05:30:01;99016.06;;;25.74;33.65
64189;BME280;50493;50.970;10.082;2022-07-26T05:32:27;99011.44;;;26.63;36.62
64189;BME280;50493;50.970;10.082;2022-07-26T05:34:55;99020.09;;;27.04;32.76
64189;BME280;50493;50.970;10.082;2022-07-26T05:37:22;99016.84;;;27.74;31.24
64189;BME280;50493;50.970;10.082;2022-07-26T05:39:47;99014.84;;;27.76;32.24
64189;BME280;50493;50.970;10.082;2022-07-26T05:42:13;99017.31;;;28.23;28.41
64189;BME280;50493;50.970;10.082;2022-07-26T05:44:39;99018.34;;;28.31;29.01
64189;BME280;50493;50.970;10.082;2022-07-26T05:47:04;99015.34;;;28.86;30.53
64189;BME280;50493;50.970;10.082;2022-07-26T05:49:30;99014.53;;;27.79;31.26
64189;BME280;50493;50.970;10.082;2022-07-26T05:51:57;99013.56;;;28.16;31.39
64189;BME280;50493;50.970;10.082;2022-07-26T05:54:24;99011.63;;;28.79;30.12
64189;BME280;50493;50.970;10.082;2022-07-26T05:56:50;99016.34;;;28.59;30.34
64189;BME280;50493;50.970;10.082;2022-07-26T05:59:15;99018.00;;;27.89;31.26
64189;BME280;50493;50.970;10.082;2022-07-26T06:01:41;99017.91;;;27.45;29.44
64189;BME280;50493;50.970;10.082;2022-07-26T06:04:06;99017.00;;;27.90;30.81
64189;BME280;50493;50.970;10.082;2022-07-26T06:06:33;99016.19;;;28.79;28.23
64189;BME280;50493;50.970;10.082;2022-07-26T06:09:00;99015.28;;;28.26;29.00
64189;BME280;50493;50.970;10.082;2022-07-26T06:11:27;99021.09;;;28.91;30.18
64189;BME280;50493;50.970;10.082;2022-07-26T06:13:52;99012.84;;;28.14;30.26
64189;BME280;50493;50.970;10.082;2022-07-26T06:16:18;99015.34;;;27.16;30.10
64189;BME280;50493;50.970;10.082;2022-07-26T06:18:43;99007.03;;;27.19;30.67
64189;BME280;50493;50.970;10.082;2022-07-26T06:21:12;99016.03;;;26.13;31.76
64189;BME280;50493;50.970;10.082;2022-07-26T06:23:38;99007.56;;;26.47;31.24
64189;BME280;50493;50.970;10.082;2022-07-26T06:26:04;99022.13;;;26.82;32.34
64189;BME280;50493;50.970;10.082;2022-07-26T06:28:31;99026.19;;;27.70;31.06
64189;BME280;50493;50.970;10.082;2022-07-26T06:30:57;99031.28;;;26.89;31.90
64189;BME280;50493;50.970;10.082;2022-07-26T06:33:22;99027.53;;;27.38;29.96
64189;BME280;50493;50.970;10.082;2022-07-26T06:35:48;99022.22;;;28.10;30.08
64189;BME280;50493;50.970;10.082;2022-07-26T06:38:13;99024.66;;;27.49;30.49
64189;BME280;50493;50.970;10.082;2022-07-26T06:40:39;99022.13;;;26.82;31.11
64189;BME280;50493;50.970;10.082;2022-07-26T06:43:04;99021.28;;;27.19;30.13
64189;BME280;50493;50.970;10.082;2022-07-26T06:45:32;99023.47;;;27.80;29.36
64189;BME280;50493;50.970;10.082;2022-07-26T06:47:58;99034.41;;;28.22;29.69
64189;BME280;50493;50.970;10.082;2022-07-26T06:50:24;99028.41;;;27.56;29.52
64189;BME280;50493;50.970;10.082;2022-07-26T06:52:49;99030.78;;;28.32;28.38
64189;BME280;50493;50.970;10.082;2022-07-26T06:55:15;99035.50;;;27.94;29.11
64189;BME280;50493;50.970;10.082;2022-07-26T06:57:40;99039.03;;;28.30;29.58
64189;BME280;50493;50.970;10.082;2022-07-26T07:00:07;99041.56;;;27.60;29.22
64189;BME280;50493;50.970;10.082;2022-07-26T07:02:34;99031.28;;;27.73;30.51
64189;BME280;50493;50.970;10.082;2022-07-26T07:05:00;99038.31;;;26.43;31.35
64189;BME280;50493;50.970;10.082;2022-07-26T07:07:25;99041.03;;;26.90;30.77
64189;BME280;50493;50.970;10.082;2022-07-26T07:09:51;99040.84;;;26.35;31.64
64189;BME280;50493;50.970;10.082;2022-07-26T07:12:16;99042.38;;;27.04;31.77
64189;BME280;50493;50.970;10.082;2022-07-26T07:14:42;99033.41;;;26.86;31.30
64189;BME280;50493;50.970;10.082;2022-07-26T07:17:08;99042.47;;;27.86;31.12
64189;BME280;50493;50.970;10.082;2022-07-26T07:19:35;99047.41;;;29.06;28.67
64189;BME280;50493;50.970;10.082;2022-07-26T07:22:01;99043.19;;;27.15;30.24
64189;BME280;50493;50.970;10.082;2022-07-26T07:24:27;99037.16;;;27.03;31.29
64189;BME280;50493;50.970;10.082;2022-07-26T07:26:52;99036.91;;;29.80;27.55
64189;BME280;50493;50.970;10.082;2022-07-26T07:29:18;99045.88;;;28.77;27.92
64189;BME280;50493;50.970;10.082;2022-07-26T07:31:44;99040.84;;;28.74;28.37
64189;BME280;50493;50.970;10.082;2022-07-26T07:34:12;99044.84;;;27.26;30.45
64189;BME280;50493;50.970;10.082;2022-07-26T07:36:39;99044.81;;;28.62;29.08
64189;BME280;50493;50.970;10.082;2022-07-26T07:39:06;99032.22;;;30.23;26.51
64189;BME280;50493;50.970;10.082;2022-07-26T07:41:31;99030.69;;;30.46;27.63
64189;BME280;50493;50.970;10.082;2022-07-26T07:43:58;99032.59;;;29.45;27.62
64189;BME280;50493;50.970;10.082;2022-07-26T07:46:24;99038.56;;;29.73;26.87
64189;BME280;50493;50.970;10.082;2022-07-26T07:48:49;99037.63;;;29.05;27.97
64189;BME280;50493;50.970;10.082;2022-07-26T07:51:14;99042.44;;;29.19;28.25
64189;BME280;50493;50.970;10.082;2022-07-26T07:53:41;99043.69;;;28.46;29.19
64189;BME280;50493;50.970;10.082;2022-07-26T07:56:07;99041.91;;;29.16;28.42
64189;BME280;50493;50.970;10.082;2022-07-26T07:58:32;99036.91;;;29.97;27.49
64189;BME280;50493;50.970;10.082;2022-07-26T08:00:58;99022.94;;;30.01;26.71
64189;BME280;50493;50.970;10.082;2022-07-26T08:03:23;99022.75;;;29.78;27.11
64189;BME280;50493;50.970;10.082;2022-07-26T08:05:49;99022.59;;;30.21;26.34
64189;BME280;50493;50.970;10.082;2022-07-26T08:08:15;99034.78;;;29.41;27.31
64189;BME280;50493;50.970;10.082;2022-07-26T08:10:42;99035.47;;;29.51;27.37
64189;BME280;50493;50.970;10.082;2022-07-26T08:13:08;99030.19;;;30.01;26.99
64189;BME280;50493;50.970;10.082;2022-07-26T08:15:33;99047.78;;;28.58;29.12
64189;BME280;50493;50.970;10.082;2022-07-26T08:17:59;99046.38;;;28.28;29.39
64189;BME280;50493;50.970;10.082;2022-07-26T08:20:24;99040.72;;;27.77;30.74
64189;BME280;50493;50.970;10.082;2022-07-26T08:22:50;99034.81;;;26.80;32.14
64189;BME280;50493;50.970;10.082;2022-07-26T08:25:15;99035.25;;;27.13;31.19
64189;BME280;50493;50.970;10.082;2022-07-26T08:27:42;99039.88;;;26.83;32.29
64189;BME280;50493;50.970;10.082;2022-07-26T08:30:09;99033.66;;;26.93;31.93
64189;BME280;50493;50.970;10.082;2022-07-26T08:32:34;99039.09;;;27.11;31.81
64189;BME280;50493;50.970;10.082;2022-07-26T08:35:00;99044.59;;;26.62;32.55
64189;BME280;50493;50.970;10.082;2022-07-26T08:37:25;99048.47;;;27.80;30.64
64189;BME280;50493;50.970;10.082;2022-07-26T08:39:51;99045.03;;;28.06;30.55
64189;BME280;50493;50.970;10.082;2022-07-26T08:42:17;99051.50;;;27.67;31.10
64189;BME280;50493;50.970;10.082;2022-07-26T08:44:46;99052.03;;;27.43;30.44
64189;BME280;50493;50.970;10.082;2022-07-26T08:47:12;99052.91;;;28.44;29.68
64189;BME280;50493;50.970;10.082;2022-07-26T08:49:37;99046.41;;;29.07;28.72
64189;BME280;50493;50.970;10.082;2022-07-26T08:52:04;99046.34;;;30.09;25.72
64189;BME280;50493;50.970;10.082;2022-07-26T08:54:29;99040.66;;;30.37;26.68
64189;BME280;50493;50.970;10.082;2022-07-26T08:56:55;99042.38;;;31.02;26.41
64189;BME280;50493;50.970;10.082;2022-07-26T08:59:20;99047.53;;;31.20;25.30
64189;BME280;50493;50.970;10.082;2022-07-26T09:01:57;99049.84;;;31.40;25.76
64189;BME280;50493;50.970;10.082;2022-07-26T09:04:25;99053.41;;;29.85;27.70
64189;BME280;50493;50.970;10.082;2022-07-26T09:06:56;99057.16;;;29.07;28.73
64189;BME280;50493;50.970;10.082;2022-07-26T09:09:22;99044.69;;;30.24;27.30
64189;BME280;50493;50.970;10.082;2022-07-26T09:11:47;99046.63;;;30.97;25.16
64189;BME280;50493;50.970;10.082;2022-07-26T09:14:12;99041.84;;;31.78;22.83
64189;BME280;50493;50.970;10.082;2022-07-26T09:16:38;99049.75;;;31.17;26.21
64189;BME280;50493;50.970;10.082;2022-07-26T09:19:16;99044.47;;;31.63;24.39
64189;BME280;50493;50.970;10.082;2022-07-26T09:21:43;99045.31;;;30.76;26.86
64189;BME280;50493;50.970;10.082;2022-07-26T09:24:09;99055.56;;;28.62;29.81
64189;BME280;50493;50.970;10.082;2022-07-26T09:26:34;99063.09;;;27.40;31.93
64189;BME280;50493;50.970;10.082;2022-07-26T09:29:02;99060.59;;;27.01;32.28
64189;BME280;50493;50.970;10.082;2022-07-26T09:31:28;99058.41;;;26.67;33.08
64189;BME280;50493;50.970;10.082;2022-07-26T09:33:54;99076.41;;;26.37;33.63
64189;BME280;50493;50.970;10.082;2022-07-26T09:36:21;99072.72;;;26.48;33.49
64189;BME280;50493;50.970;10.082;2022-07-26T09:38:48;99073.84;;;26.45;33.57
64189;BME280;50493;50.970;10.082;2022-07-26T09:41:17;99076.66;;;26.14;34.05
64189;BME280;50493;50.970;10.082;2022-07-26T09:43:43;99080.06;;;26.26;33.91
64189;BME280;50493;50.970;10.082;2022-07-26T09:46:09;99076.69;;;26.34;33.73
64189;BME280;50493;50.970;10.082;2022-07-26T09:48:35;99081.03;;;26.45;32.85
64189;BME280;50493;50.970;10.082;2022-07-26T09:51:04;99079.75;;;26.19;34.10
64189;BME280;50493;50.970;10.082;2022-07-26T09:53:37;99084.00;;;26.32;33.89
64189;BME280;50493;50.970;10.082;2022-07-26T09:56:03;99081.47;;;26.40;33.81
64189;BME280;50493;50.970;10.082;2022-07-26T09:58:29;99083.00;;;26.23;34.21
64189;BME280;50493;50.970;10.082;2022-07-26T10:00:55;99091.63;;;26.27;33.98
64189;BME280;50493;50.970;10.082;2022-07-26T10:03:20;99093.31;;;26.28;33.86
64189;BME280;50493;50.970;10.082;2022-07-26T10:05:45;99089.91;;;26.45;33.72
64189;BME280;50493;50.970;10.082;2022-07-26T10:08:11;99097.25;;;26.14;34.34
64189;BME280;50493;50.970;10.082;2022-07-26T10:10:42;99094.66;;;26.71;33.32
64189;BME280;50493;50.970;10.082;2022-07-26T10:13:09;99099.47;;;26.67;33.21
64189;BME280;50493;50.970;10.082;2022-07-26T10:15:37;99101.31;;;26.67;33.26
64189;BME280;50493;50.970;10.082;2022-07-26T10:18:04;99107.94;;;26.72;32.77
64189;BME280;50493;50.970;10.082;2022-07-26T10:20:47;99111.03;;;26.87;32.96
64189;BME280;50493;50.970;10.082;2022-07-26T10:23:39;99109.69;;;27.39;31.71
64189;BME280;50493;50.970;10.082;2022-07-26T10:26:09;99108.53;;;27.79;30.18
64189;BME280;50493;50.970;10.082;2022-07-26T10:28:36;99111.94;;;27.99;30.18
64189;BME280;50493;50.970;10.082;2022-07-26T10:31:27;99105.91;;;28.78;29.81
64189;BME280;50493;50.970;10.082;2022-07-26T10:33:55;99116.22;;;27.46;32.07
64189;BME280;50493;50.970;10.082;2022-07-26T10:36:26;99114.19;;;27.20;32.15
64189;BME280;50493;50.970;10.082;2022-07-26T10:38:59;99119.47;;;26.93;33.03
64189;BME280;50493;50.970;10.082;2022-07-26T10:41:35;99121.44;;;26.81;33.01
64189;BME280;50493;50.970;10.082;2022-07-26T10:44:22;99118.09;;;26.88;32.98
64189;BME280;50493;50.970;10.082;2022-07-26T10:46:55;99122.94;;;26.55;33.50
64189;BME280;50493;50.970;10.082;2022-07-26T10:49:27;99123.19;;;26.43;33.59
64189;BME280;50493;50.970;10.082;2022-07-26T10:52:04;99126.47;;;26.46;33.61
64189;BME280;50493;50.970;10.082;2022-07-26T10:54:30;99126.88;;;26.61;33.38
64189;BME280;50493;50.970;10.082;2022-07-26T10:56:57;99126.00;;;26.70;33.06
64189;BME280;50493;50.970;10.082;2022-07-26T10:59:29;99132.78;;;26.65;33.19
64189;BME280;50493;50.970;10.082;2022-07-26T11:01:55;99137.72;;;26.69;33.18
64189;BME280;50493;50.970;10.082;2022-07-26T11:04:21;99139.16;;;26.34;33.94
64189;BME280;50493;50.970;10.082;2022-07-26T11:06:47;99139.84;;;26.27;34.25
64189;BME280;50493;50.970;10.082;2022-07-26T11:09:13;99143.25;;;26.29;34.22
64189;BME280;50493;50.970;10.082;2022-07-26T11:11:39;99149.72;;;26.36;33.75
64189;BME280;50493;50.970;10.082;2022-07-26T11:14:07;99147.47;;;26.61;33.38
64189;BME280;50493;50.970;10.082;2022-07-26T11:16:37;99151.53;;;26.55;33.46
64189;BME280;50493;50.970;10.082;2022-07-26T11:19:11;99146.31;;;26.53;33.26
64189;BME280;50493;50.970;10.082;2022-07-26T11:21:36;99143.19;;;26.87;32.82
64189;BME280;50493;50.970;10.082;2022-07-26T11:24:02;99149.72;;;26.65;33.34
64189;BME280;50493;50.970;10.082;2022-07-26T11:26:28;99144.75;;;26.80;32.93
64189;BME280;50493;50.970;10.082;2022-07-26T11:28:57;99147.31;;;26.72;33.21
64189;BME280;50493;50.970;10.082;2022-07-26T11:31:28;99153.22;;;26.66;33.26
64189;BME280;50493;50.970;10.082;2022-07-26T11:33:57;99157.63;;;26.47;33.75
64189;BME280;50493;50.970;10.082;2022-07-26T11:36:34;99155.06;;;26.46;33.55
64189;BME280;50493;50.970;10.082;2022-07-26T11:39:00;99159.44;;;26.56;33.59
64189;BME280;50493;50.970;10.082;2022-07-26T11:41:28;99152.97;;;26.39;33.82
64189;BME280;50493;50.970;10.082;2022-07-26T11:43:55;99148.00;;;26.35;33.96
64189;BME280;50493;50.970;10.082;2022-07-26T11:46:21;99148.88;;;26.45;33.00
64189;BME280;50493;50.970;10.082;2022-07-26T11:48:50;99153.38;;;26.64;33.67
64189;BME280;50493;50.970;10.082;2022-07-26T11:51:19;99155.50;;;26.61;33.56
64189;BME280;50493;50.970;10.082;2022-07-26T11:53:45;99146.06;;;27.23;32.01
64189;BME280;50493;50.970;10.082;2022-07-26T11:56:13;99143.59;;;27.40;32.04
64189;BME280;50493;50.970;10.082;2022-07-26T11:58:39;99139.19;;;27.11;32.81
64189;BME280;50493;50.970;10.082;2022-07-26T12:01:06;99140.00;;;27.21;32.35
64189;BME280;50493;50.970;10.082;2022-07-26T12:03:33;99135.44;;;27.32;32.48
64189;BME280;50493;50.970;10.082;2022-07-26T12:06:05;99149.13;;;27.76;31.24
64189;BME280;50493;50.970;10.082;2022-07-26T12:08:41;99145.75;;;28.38;29.15
64189;BME280;50493;50.970;10.082;2022-07-26T12:11:07;99136.53;;;28.04;29.49
64189;BME280;50493;50.970;10.082;2022-07-26T12:13:46;99139.63;;;28.00;29.57
64189;BME280;50493;50.970;10.082;2022-07-26T12:16:12;99139.72;;;27.24;32.62
64189;BME280;50493;50.970;10.082;2022-07-26T12:18:37;99137.88;;;27.25;32.61
64189;BME280;50493;50.970;10.082;2022-07-26T12:21:06;99138.22;;;27.02;33.30
64189;BME280;50493;50.970;10.082;2022-07-26T12:23:45;99134.31;;;27.72;31.81
64189;BME280;50493;50.970;10.082;2022-07-26T12:26:23;99132.16;;;28.03;31.00
64189;BME280;50493;50.970;10.082;2022-07-26T12:28:48;99131.00;;;28.06;30.08
64189;BME280;50493;50.970;10.082;2022-07-26T12:31:25;99137.34;;;28.05;31.00
64189;BME280;50493;50.970;10.082;2022-07-26T12:33:51;99132.28;;;28.02;29.56
64189;BME280;50493;50.970;10.082;2022-07-26T12:36:18;99127.44;;;27.60;32.30
64189;BME280;50493;50.970;10.082;2022-07-26T12:38:44;99124.31;;;27.64;32.20
64189;BME280;50493;50.970;10.082;2022-07-26T12:41:10;99126.78;;;27.76;32.21
64189;BME280;50493;50.970;10.082;2022-07-26T12:43:38;99129.09;;;27.88;31.95
64189;BME280;50493;50.970;10.082;2022-07-26T12:46:04;99127.31;;;27.79;30.64
64189;BME280;50493;50.970;10.082;2022-07-26T12:48:29;99124.91;;;28.04;31.38